sensor_id;sensor_type;location;lat;lon;timestamp;P1;durP1;ratioP1;P2;durP2;ratioP2
37647;SDS011;23490;53.656;10.076;2023-06-22T00:00:43;3.50;;;2.05;;
37647;SDS011;23490;53.656;10.076;2023-06-22T00:03:09;3.78;;;2.40;;
37647;SDS011;23490;53.656;10.076;2023-06-22T00:05:35;4.22;;;2.13;;
37647;SDS011;23490;53.656;10.076;2023-06-22T00:08:02;5.80;;;2.30;;
37647;SDS011;23490;53.656;10.076;2023-06-22T00:10:29;4.88;;;2.70;;
37647;SDS011;23490;53.656;10.076;2023-06-22T00:12:54;3.65;;;2.20;;
37647;SDS011;23490;53.656;10.076;2023-06-22T00:15:20;4.85;;;2.45;;
37647;SDS011;23490;53.656;10.076;2023-06-22T00:17:48;4.07;;;2.50;;
37647;SDS011;23490;53.656;10.076;2023-06-22T00:20:15;5.20;;;2.67;;
37647;SDS011;23490;53.656;10.076;2023-06-22T00:22:43;4.63;;;2.67;;
37647;SDS011;23490;53.656;10.076;2023-06-22T00:25:08;4.72;;;2.60;;
37647;SDS011;23490;53.656;10.076;2023-06-22T00:27:34;4.55;;;2.35;;
37647;SDS011;23490;53.656;10.076;2023-06-22T00:30:00;4.28;;;2.75;;
37647;SDS011;23490;53.656;10.076;2023-06-22T00:32:25;4.25;;;2.53;;
37647;SDS011;23490;53.656;10.076;2023-06-22T00:34:51;3.75;;;2.22;;
37647;SDS011;23490;53.656;10.076;2023-06-22T00:37:17;4.35;;;2.17;;
37647;SDS011;23490;53.656;10.076;2023-06-22T00:39:43;4.78;;;2.67;;
37647;SDS011;23490;53.656;10.076;2023-06-22T00:42:08;6.13;;;2.40;;
37647;SDS011;23490;53.656;10.076;2023-06-22T00:44:34;5.65;;;2.75;;
37647;SDS011;23490;53.656;10.076;2023-06-22T00:47:00;4.63;;;2.50;;
37647;SDS011;23490;53.656;10.076;2023-06-22T00:49:27;4.13;;;2.13;;
37647;SDS011;23490;53.656;10.076;2023-06-22T00:51:53;4.20;;;2.30;;
37647;SDS011;23490;53.656;10.076;2023-06-22T00:54:19;4.75;;;2.35;;
37647;SDS011;23490;53.656;10.076;2023-06-22T00:56:50;4.38;;;2.35;;
37647;SDS011;23490;53.656;10.076;2023-06-22T00:59:22;6.03;;;2.60;;
37647;SDS011;23490;53.656;10.076;2023-06-22T01:01:51;6.30;;;2.90;;
37647;SDS011;23490;53.656;10.076;2023-06-22T01:04:17;4.50;;;2.50;;
37647;SDS011;23490;53.656;10.076;2023-06-22T01:06:50;4.18;;;2.42;;
37647;SDS011;23490;53.656;10.076;2023-06-22T01:09:27;4.47;;;2.47;;
37647;SDS011;23490;53.656;10.076;2023-06-22T01:11:59;4.93;;;2.60;;
37647;SDS011;23490;53.656;10.076;2023-06-22T01:17:08;5.88;;;2.47;;
37647;SDS011;23490;53.656;10.076;2023-06-22T01:19:45;5.25;;;2.50;;
37647;SDS011;23490;53.656;10.076;2023-06-22T01:22:13;5.15;;;2.50;;
37647;SDS011;23490;53.656;10.076;2023-06-22T01:30:26;5.10;;;2.83;;
37647;SDS011;23490;53.656;10.076;2023-06-22T01:32:54;3.78;;;2.17;;
37647;SDS011;23490;53.656;10.076;2023-06-22T01:35:21;3.47;;;2.25;;
37647;SDS011;23490;53.656;10.076;2023-06-22T01:37:47;4.00;;;2.65;;
37647;SDS011;23490;53.656;10.076;2023-06-22T01:40:14;4.03;;;2.50;;
37647;SDS011;23490;53.656;10.076;2023-06-22T01:42:40;4.35;;;2.53;;
37647;SDS011;23490;53.656;10.076;2023-06-22T01:45:08;7.25;;;2.45;;
37647;SDS011;23490;53.656;10.076;2023-06-22T01:47:35;4.35;;;2.53;;
37647;SDS011;23490;53.656;10.076;2023-06-22T01:50:01;3.75;;;2.30;;
37647;SDS011;23490;53.656;10.076;2023-06-22T01:52:27;4.53;;;2.78;;
37647;SDS011;23490;53.656;10.076;2023-06-22T01:54:53;4.95;;;2.58;;
37647;SDS011;23490;53.656;10.076;2023-06-22T01:57:19;4.40;;;2.38;;
37647;SDS011;23490;53.656;10.076;2023-06-22T02:02:43;4.55;;;2.35;;
37647;SDS011;23490;53.656;10.076;2023-06-22T02:05:16;4.18;;;2.45;;
37647;SDS011;23490;53.656;10.076;2023-06-22T02:07:49;5.47;;;2.78;;
37647;SDS011;23490;53.656;10.076;2023-06-22T02:10:19;5.50;;;2.83;;
37647;SDS011;23490;53.656;10.076;2023-06-22T02:12:46;5.25;;;2.80;;
37647;SDS011;23490;53.656;10.076;2023-06-22T02:15:13;3.92;;;2.20;;
37647;SDS011;23490;53.656;10.076;2023-06-22T02:17:39;4.38;;;2.70;;
37647;SDS011;23490;53.656;10.076;2023-06-22T02:22:37;4.47;;;2.30;;
37647;SDS011;23490;53.656;10.076;2023-06-22T02:25:02;4.68;;;2.83;;
37647;SDS011;23490;53.656;10.076;2023-06-22T02:27:28;4.47;;;2.40;;
37647;SDS011;23490;53.656;10.076;2023-06-22T02:29:53;8.10;;;3.13;;
37647;SDS011;23490;53.656;10.076;2023-06-22T02:32:20;4.25;;;2.58;;
37647;SDS011;23490;53.656;10.076;2023-06-22T02:34:45;5.60;;;2.60;;
37647;SDS011;23490;53.656;10.076;2023-06-22T02:37:12;5.32;;;2.70;;
37647;SDS011;23490;53.656;10.076;2023-06-22T02:39:39;4.75;;;2.90;;
37647;SDS011;23490;53.656;10.076;2023-06-22T02:42:05;4.80;;;2.78;;
37647;SDS011;23490;53.656;10.076;2023-06-22T02:44:31;7.40;;;2.78;;
37647;SDS011;23490;53.656;10.076;2023-06-22T02:46:57;4.47;;;2.75;;
37647;SDS011;23490;53.656;10.076;2023-06-22T02:49:23;5.35;;;2.45;;
37647;SDS011;23490;53.656;10.076;2023-06-22T02:51:49;4.45;;;2.55;;
37647;SDS011;23490;53.656;10.076;2023-06-22T02:54:15;4.47;;;2.50;;
37647;SDS011;23490;53.656;10.076;2023-06-22T02:56:41;4.88;;;2.80;;
37647;SDS011;23490;53.656;10.076;2023-06-22T02:59:10;4.88;;;2.85;;
37647;SDS011;23490;53.656;10.076;2023-06-22T03:01:36;4.78;;;2.53;;
37647;SDS011;23490;53.656;10.076;2023-06-22T03:04:08;4.18;;;2.55;;
37647;SDS011;23490;53.656;10.076;2023-06-22T03:06:37;4.30;;;2.63;;
37647;SDS011;23490;53.656;10.076;2023-06-22T03:09:06;4.20;;;2.55;;
37647;SDS011;23490;53.656;10.076;2023-06-22T03:11:32;4.70;;;2.78;;
37647;SDS011;23490;53.656;10.076;2023-06-22T03:14:00;5.35;;;2.70;;
37647;SDS011;23490;53.656;10.076;2023-06-22T03:16:27;5.55;;;3.28;;
37647;SDS011;23490;53.656;10.076;2023-06-22T03:18:52;4.47;;;2.80;;
37647;SDS011;23490;53.656;10.076;2023-06-22T03:21:25;5.95;;;3.45;;
37647;SDS011;23490;53.656;10.076;2023-06-22T03:23:53;4.78;;;3.08;;
37647;SDS011;23490;53.656;10.076;2023-06-22T03:26:18;5.13;;;2.80;;
37647;SDS011;23490;53.656;10.076;2023-06-22T03:28:44;7.05;;;3.88;;
37647;SDS011;23490;53.656;10.076;2023-06-22T03:31:09;5.80;;;3.20;;
37647;SDS011;23490;53.656;10.076;2023-06-22T03:33:34;4.85;;;3.00;;
37647;SDS011;23490;53.656;10.076;2023-06-22T03:36:01;4.75;;;3.03;;
37647;SDS011;23490;53.656;10.076;2023-06-22T03:38:26;4.63;;;3.13;;
37647;SDS011;23490;53.656;10.076;2023-06-22T03:40:52;5.32;;;3.30;;
37647;SDS011;23490;53.656;10.076;2023-06-22T03:43:17;5.75;;;3.47;;
37647;SDS011;23490;53.656;10.076;2023-06-22T03:45:43;6.63;;;3.65;;
37647;SDS011;23490;53.656;10.076;2023-06-22T03:48:10;5.90;;;3.38;;
37647;SDS011;23490;53.656;10.076;2023-06-22T03:50:36;6.25;;;3.65;;
37647;SDS011;23490;53.656;10.076;2023-06-22T03:53:02;6.47;;;3.85;;
37647;SDS011;23490;53.656;10.076;2023-06-22T03:55:27;5.63;;;3.40;;
37647;SDS011;23490;53.656;10.076;2023-06-22T03:57:53;7.07;;;3.83;;
37647;SDS011;23490;53.656;10.076;2023-06-22T04:00:22;7.57;;;3.50;;
37647;SDS011;23490;53.656;10.076;2023-06-22T04:02:47;7.63;;;3.65;;
37647;SDS011;23490;53.656;10.076;2023-06-22T04:05:13;6.38;;;3.70;;
37647;SDS011;23490;53.656;10.076;2023-06-22T04:07:39;7.65;;;3.30;;
37647;SDS011;23490;53.656;10.076;2023-06-22T04:10:04;6.22;;;3.47;;
37647;SDS011;23490;53.656;10.076;2023-06-22T04:12:30;6.35;;;4.10;;
37647;SDS011;23490;53.656;10.076;2023-06-22T04:14:56;8.75;;;4.25;;
37647;SDS011;23490;53.656;10.076;2023-06-22T04:17:22;6.60;;;4.18;;
37647;SDS011;23490;53.656;10.076;2023-06-22T04:19:50;11.63;;;4.05;;
37647;SDS011;23490;53.656;10.076;2023-06-22T04:22:17;7.82;;;4.43;;
37647;SDS011;23490;53.656;10.076;2023-06-22T04:24:42;7.07;;;4.60;;
37647;SDS011;23490;53.656;10.076;2023-06-22T04:27:08;7.18;;;4.57;;
37647;SDS011;23490;53.656;10.076;2023-06-22T04:29:35;7.38;;;4.63;;
37647;SDS011;23490;53.656;10.076;2023-06-22T04:32:01;6.68;;;4.20;;
37647;SDS011;23490;53.656;10.076;2023-06-22T04:34:30;7.47;;;4.57;;
37647;SDS011;23490;53.656;10.076;2023-06-22T04:36:55;7.55;;;4.60;;
37647;SDS011;23490;53.656;10.076;2023-06-22T04:39:21;7.63;;;4.60;;
37647;SDS011;23490;53.656;10.076;2023-06-22T04:41:47;7.72;;;4.35;;
37647;SDS011;23490;53.656;10.076;2023-06-22T04:44:16;7.90;;;4.65;;
37647;SDS011;23490;53.656;10.076;2023-06-22T04:46:49;8.95;;;4.68;;
37647;SDS011;23490;53.656;10.076;2023-06-22T04:49:19;9.10;;;3.95;;
37647;SDS011;23490;53.656;10.076;2023-06-22T04:51:45;8.30;;;4.50;;
37647;SDS011;23490;53.656;10.076;2023-06-22T04:54:10;7.13;;;4.03;;
37647;SDS011;23490;53.656;10.076;2023-06-22T04:56:36;7.95;;;5.18;;
37647;SDS011;23490;53.656;10.076;2023-06-22T04:59:02;7.78;;;4.35;;
37647;SDS011;23490;53.656;10.076;2023-06-22T05:01:28;9.02;;;4.63;;
37647;SDS011;23490;53.656;10.076;2023-06-22T05:03:56;8.60;;;4.18;;
37647;SDS011;23490;53.656;10.076;2023-06-22T05:06:23;7.50;;;4.35;;
37647;SDS011;23490;53.656;10.076;2023-06-22T05:08:54;6.53;;;4.72;;
37647;SDS011;23490;53.656;10.076;2023-06-22T05:11:26;8.77;;;4.18;;
37647;SDS011;23490;53.656;10.076;2023-06-22T05:13:56;9.35;;;5.05;;
37647;SDS011;23490;53.656;10.076;2023-06-22T05:16:22;7.40;;;4.78;;
37647;SDS011;23490;53.656;10.076;2023-06-22T05:18:57;7.03;;;4.53;;
37647;SDS011;23490;53.656;10.076;2023-06-22T05:21:23;6.35;;;3.83;;
37647;SDS011;23490;53.656;10.076;2023-06-22T05:23:55;8.93;;;3.80;;
37647;SDS011;23490;53.656;10.076;2023-06-22T05:26:25;7.97;;;3.90;;
37647;SDS011;23490;53.656;10.076;2023-06-22T05:28:53;5.53;;;3.05;;
37647;SDS011;23490;53.656;10.076;2023-06-22T05:31:24;6.13;;;3.92;;
37647;SDS011;23490;53.656;10.076;2023-06-22T05:33:51;7.55;;;3.53;;
37647;SDS011;23490;53.656;10.076;2023-06-22T05:36:19;7.43;;;3.90;;
37647;SDS011;23490;53.656;10.076;2023-06-22T05:38:45;7.80;;;4.07;;
37647;SDS011;23490;53.656;10.076;2023-06-22T05:41:11;5.72;;;3.20;;
37647;SDS011;23490;53.656;10.076;2023-06-22T05:43:36;6.43;;;3.20;;
37647;SDS011;23490;53.656;10.076;2023-06-22T05:46:02;6.70;;;3.05;;
37647;SDS011;23490;53.656;10.076;2023-06-22T05:48:29;5.32;;;3.25;;
37647;SDS011;23490;53.656;10.076;2023-06-22T05:50:55;4.47;;;2.45;;
37647;SDS011;23490;53.656;10.076;2023-06-22T05:53:21;3.75;;;2.40;;
37647;SDS011;23490;53.656;10.076;2023-06-22T05:55:48;3.70;;;2.20;;
37647;SDS011;23490;53.656;10.076;2023-06-22T05:58:13;4.45;;;2.33;;
37647;SDS011;23490;53.656;10.076;2023-06-22T06:00:39;6.47;;;3.13;;
37647;SDS011;23490;53.656;10.076;2023-06-22T06:03:06;5.05;;;2.90;;
37647;SDS011;23490;53.656;10.076;2023-06-22T06:05:34;5.07;;;2.60;;
37647;SDS011;23490;53.656;10.076;2023-06-22T06:08:00;6.10;;;2.58;;
37647;SDS011;23490;53.656;10.076;2023-06-22T06:10:26;6.47;;;3.03;;
37647;SDS011;23490;53.656;10.076;2023-06-22T06:12:54;6.05;;;2.47;;
37647;SDS011;23490;53.656;10.076;2023-06-22T06:15:20;5.18;;;2.83;;
37647;SDS011;23490;53.656;10.076;2023-06-22T06:17:46;4.63;;;1.90;;
37647;SDS011;23490;53.656;10.076;2023-06-22T06:20:12;4.15;;;1.90;;
37647;SDS011;23490;53.656;10.076;2023-06-22T06:22:38;5.47;;;2.20;;
37647;SDS011;23490;53.656;10.076;2023-06-22T06:25:03;5.03;;;1.98;;
37647;SDS011;23490;53.656;10.076;2023-06-22T06:27:29;3.80;;;1.52;;
37647;SDS011;23490;53.656;10.076;2023-06-22T06:29:56;2.97;;;1.77;;
37647;SDS011;23490;53.656;10.076;2023-06-22T06:32:22;4.15;;;1.77;;
37647;SDS011;23490;53.656;10.076;2023-06-22T06:34:50;3.85;;;2.17;;
37647;SDS011;23490;53.656;10.076;2023-06-22T06:37:16;4.70;;;1.75;;
37647;SDS011;23490;53.656;10.076;2023-06-22T06:39:43;3.33;;;1.90;;
37647;SDS011;23490;53.656;10.076;2023-06-22T06:42:09;3.05;;;1.70;;
37647;SDS011;23490;53.656;10.076;2023-06-22T06:44:36;2.38;;;1.70;;
37647;SDS011;23490;53.656;10.076;2023-06-22T06:47:03;3.97;;;1.80;;
37647;SDS011;23490;53.656;10.076;2023-06-22T06:49:29;4.05;;;2.10;;
37647;SDS011;23490;53.656;10.076;2023-06-22T06:51:55;2.80;;;1.38;;
37647;SDS011;23490;53.656;10.076;2023-06-22T06:54:21;5.05;;;1.70;;
37647;SDS011;23490;53.656;10.076;2023-06-22T06:56:46;3.97;;;1.70;;
37647;SDS011;23490;53.656;10.076;2023-06-22T06:59:13;3.38;;;1.88;;
37647;SDS011;23490;53.656;10.076;2023-06-22T07:01:42;4.13;;;2.30;;
37647;SDS011;23490;53.656;10.076;2023-06-22T07:04:09;4.55;;;2.05;;
37647;SDS011;23490;53.656;10.076;2023-06-22T07:06:36;3.38;;;1.90;;
37647;SDS011;23490;53.656;10.076;2023-06-22T07:09:01;4.93;;;1.83;;
37647;SDS011;23490;53.656;10.076;2023-06-22T07:11:26;3.88;;;2.05;;
37647;SDS011;23490;53.656;10.076;2023-06-22T07:13:56;4.50;;;2.00;;
37647;SDS011;23490;53.656;10.076;2023-06-22T07:16:22;3.95;;;1.80;;
37647;SDS011;23490;53.656;10.076;2023-06-22T07:18:48;2.72;;;1.63;;
37647;SDS011;23490;53.656;10.076;2023-06-22T07:21:14;4.55;;;2.15;;
37647;SDS011;23490;53.656;10.076;2023-06-22T07:23:39;4.00;;;2.15;;
37647;SDS011;23490;53.656;10.076;2023-06-22T07:26:04;4.00;;;2.08;;
37647;SDS011;23490;53.656;10.076;2023-06-22T07:28:31;3.22;;;1.75;;
37647;SDS011;23490;53.656;10.076;2023-06-22T07:31:02;3.42;;;1.60;;
37647;SDS011;23490;53.656;10.076;2023-06-22T07:33:28;4.38;;;2.30;;
37647;SDS011;23490;53.656;10.076;2023-06-22T07:35:53;4.78;;;2.10;;
37647;SDS011;23490;53.656;10.076;2023-06-22T07:38:18;5.72;;;1.90;;
37647;SDS011;23490;53.656;10.076;2023-06-22T07:40:44;3.90;;;1.92;;
37647;SDS011;23490;53.656;10.076;2023-06-22T07:43:09;4.95;;;2.00;;
37647;SDS011;23490;53.656;10.076;2023-06-22T07:45:37;4.53;;;2.33;;
37647;SDS011;23490;53.656;10.076;2023-06-22T07:48:05;4.38;;;2.10;;
37647;SDS011;23490;53.656;10.076;2023-06-22T07:50:30;6.68;;;2.40;;
37647;SDS011;23490;53.656;10.076;2023-06-22T07:52:57;3.10;;;2.00;;
37647;SDS011;23490;53.656;10.076;2023-06-22T07:55:22;4.30;;;1.77;;
37647;SDS011;23490;53.656;10.076;2023-06-22T07:57:49;4.95;;;2.47;;
37647;SDS011;23490;53.656;10.076;2023-06-22T08:00:17;4.78;;;2.15;;
37647;SDS011;23490;53.656;10.076;2023-06-22T08:02:44;4.63;;;2.22;;
37647;SDS011;23490;53.656;10.076;2023-06-22T08:05:10;5.72;;;2.45;;
37647;SDS011;23490;53.656;10.076;2023-06-22T08:07:37;3.28;;;1.73;;
37647;SDS011;23490;53.656;10.076;2023-06-22T08:10:03;3.70;;;2.10;;
37647;SDS011;23490;53.656;10.076;2023-06-22T08:12:35;3.85;;;2.03;;
37647;SDS011;23490;53.656;10.076;2023-06-22T08:15:00;4.65;;;2.13;;
37647;SDS011;23490;53.656;10.076;2023-06-22T08:17:27;4.20;;;2.10;;
37647;SDS011;23490;53.656;10.076;2023-06-22T08:19:52;3.63;;;2.13;;
37647;SDS011;23490;53.656;10.076;2023-06-22T08:22:18;3.97;;;1.95;;
37647;SDS011;23490;53.656;10.076;2023-06-22T08:24:44;4.30;;;2.30;;
37647;SDS011;23490;53.656;10.076;2023-06-22T08:27:10;3.90;;;2.17;;
37647;SDS011;23490;53.656;10.076;2023-06-22T08:29:40;6.97;;;2.33;;
37647;SDS011;23490;53.656;10.076;2023-06-22T08:32:09;3.95;;;2.22;;
37647;SDS011;23490;53.656;10.076;2023-06-22T08:34:35;4.38;;;2.15;;
37647;SDS011;23490;53.656;10.076;2023-06-22T08:37:00;3.05;;;1.80;;
37647;SDS011;23490;53.656;10.076;2023-06-22T08:39:31;3.42;;;1.88;;
37647;SDS011;23490;53.656;10.076;2023-06-22T08:41:57;3.15;;;1.75;;
37647;SDS011;23490;53.656;10.076;2023-06-22T08:44:22;4.25;;;1.70;;
37647;SDS011;23490;53.656;10.076;2023-06-22T08:46:47;3.97;;;1.98;;
37647;SDS011;23490;53.656;10.076;2023-06-22T08:49:13;3.08;;;2.10;;
37647;SDS011;23490;53.656;10.076;2023-06-22T08:51:38;3.05;;;1.83;;
37647;SDS011;23490;53.656;10.076;2023-06-22T08:54:04;3.80;;;1.95;;
37647;SDS011;23490;53.656;10.076;2023-06-22T08:56:30;3.75;;;1.80;;
37647;SDS011;23490;53.656;10.076;2023-06-22T08:58:55;4.82;;;2.20;;
37647;SDS011;23490;53.656;10.076;2023-06-22T09:01:21;2.53;;;1.70;;
37647;SDS011;23490;53.656;10.076;2023-06-22T09:03:48;4.93;;;1.50;;
37647;SDS011;23490;53.656;10.076;2023-06-22T09:06:21;2.78;;;1.52;;
37647;SDS011;23490;53.656;10.076;2023-06-22T09:08:46;3.95;;;1.67;;
37647;SDS011;23490;53.656;10.076;2023-06-22T09:11:13;2.63;;;1.77;;
37647;SDS011;23490;53.656;10.076;2023-06-22T09:13:38;4.63;;;1.90;;
37647;SDS011;23490;53.656;10.076;2023-06-22T09:16:05;3.63;;;1.73;;
37647;SDS011;23490;53.656;10.076;2023-06-22T09:18:30;2.58;;;1.35;;
37647;SDS011;23490;53.656;10.076;2023-06-22T09:20:59;3.70;;;1.73;;
37647;SDS011;23490;53.656;10.076;2023-06-22T09:23:24;5.30;;;2.08;;
37647;SDS011;23490;53.656;10.076;2023-06-22T09:25:49;3.53;;;2.05;;
37647;SDS011;23490;53.656;10.076;2023-06-22T09:28:15;2.70;;;1.75;;
37647;SDS011;23490;53.656;10.076;2023-06-22T09:30:45;2.65;;;1.63;;
37647;SDS011;23490;53.656;10.076;2023-06-22T09:33:10;3.95;;;1.88;;
37647;SDS011;23490;53.656;10.076;2023-06-22T09:35:36;3.75;;;2.22;;
37647;SDS011;23490;53.656;10.076;2023-06-22T09:38:01;2.75;;;1.60;;
37647;SDS011;23490;53.656;10.076;2023-06-22T09:40:26;3.80;;;2.22;;
37647;SDS011;23490;53.656;10.076;2023-06-22T09:42:52;3.10;;;2.05;;
37647;SDS011;23490;53.656;10.076;2023-06-22T09:45:17;3.13;;;1.73;;
37647;SDS011;23490;53.656;10.076;2023-06-22T09:47:43;3.28;;;1.85;;
37647;SDS011;23490;53.656;10.076;2023-06-22T09:50:08;3.03;;;2.03;;
37647;SDS011;23490;53.656;10.076;2023-06-22T09:52:34;4.63;;;2.30;;
37647;SDS011;23490;53.656;10.076;2023-06-22T09:54:59;5.05;;;2.97;;
37647;SDS011;23490;53.656;10.076;2023-06-22T09:57:27;4.85;;;1.80;;
37647;SDS011;23490;53.656;10.076;2023-06-22T09:59:52;5.55;;;2.13;;
37647;SDS011;23490;53.656;10.076;2023-06-22T10:02:23;5.13;;;2.00;;
37647;SDS011;23490;53.656;10.076;2023-06-22T10:04:49;3.28;;;2.00;;
37647;SDS011;23490;53.656;10.076;2023-06-22T10:07:15;2.47;;;1.73;;
37647;SDS011;23490;53.656;10.076;2023-06-22T10:09:42;3.95;;;1.75;;
37647;SDS011;23490;53.656;10.076;2023-06-22T10:12:07;3.83;;;1.65;;
37647;SDS011;23490;53.656;10.076;2023-06-22T10:14:33;2.83;;;1.80;;
37647;SDS011;23490;53.656;10.076;2023-06-22T10:16:59;2.58;;;1.77;;
37647;SDS011;23490;53.656;10.076;2023-06-22T10:19:25;2.33;;;1.60;;
37647;SDS011;23490;53.656;10.076;2023-06-22T10:21:50;2.67;;;1.90;;
37647;SDS011;23490;53.656;10.076;2023-06-22T10:24:17;4.05;;;2.03;;
37647;SDS011;23490;53.656;10.076;2023-06-22T10:26:42;4.03;;;2.00;;
37647;SDS011;23490;53.656;10.076;2023-06-22T10:29:07;3.13;;;1.73;;
37647;SDS011;23490;53.656;10.076;2023-06-22T10:31:32;4.88;;;2.13;;
37647;SDS011;23490;53.656;10.076;2023-06-22T10:33:58;3.72;;;1.98;;
37647;SDS011;23490;53.656;10.076;2023-06-22T10:36:23;3.30;;;2.10;;
37647;SDS011;23490;53.656;10.076;2023-06-22T10:38:49;3.97;;;2.13;;
37647;SDS011;23490;53.656;10.076;2023-06-22T10:41:16;3.58;;;2.17;;
37647;SDS011;23490;53.656;10.076;2023-06-22T10:43:42;3.50;;;2.03;;
37647;SDS011;23490;53.656;10.076;2023-06-22T10:46:07;2.60;;;1.70;;
37647;SDS011;23490;53.656;10.076;2023-06-22T10:48:32;3.45;;;2.20;;
37647;SDS011;23490;53.656;10.076;2023-06-22T10:50:58;3.25;;;2.10;;
37647;SDS011;23490;53.656;10.076;2023-06-22T10:53:24;3.85;;;1.70;;
37647;SDS011;23490;53.656;10.076;2023-06-22T10:55:49;3.40;;;2.05;;
37647;SDS011;23490;53.656;10.076;2023-06-22T10:58:15;4.15;;;1.88;;
37647;SDS011;23490;53.656;10.076;2023-06-22T11:00:40;2.75;;;1.70;;
37647;SDS011;23490;53.656;10.076;2023-06-22T11:03:05;3.40;;;2.00;;
37647;SDS011;23490;53.656;10.076;2023-06-22T11:05:31;3.60;;;2.28;;
37647;SDS011;23490;53.656;10.076;2023-06-22T11:07:58;4.63;;;2.20;;
37647;SDS011;23490;53.656;10.076;2023-06-22T11:10:23;3.60;;;2.50;;
37647;SDS011;23490;53.656;10.076;2023-06-22T11:12:49;4.10;;;2.00;;
37647;SDS011;23490;53.656;10.076;2023-06-22T11:15:15;5.50;;;2.10;;
37647;SDS011;23490;53.656;10.076;2023-06-22T11:17:40;2.53;;;1.70;;
37647;SDS011;23490;53.656;10.076;2023-06-22T11:20:06;3.00;;;2.10;;
37647;SDS011;23490;53.656;10.076;2023-06-22T11:22:39;2.92;;;1.90;;
37647;SDS011;23490;53.656;10.076;2023-06-22T11:25:05;3.47;;;2.30;;
37647;SDS011;23490;53.656;10.076;2023-06-22T11:27:33;3.30;;;2.10;;
37647;SDS011;23490;53.656;10.076;2023-06-22T11:29:58;5.50;;;2.15;;
37647;SDS011;23490;53.656;10.076;2023-06-22T11:32:23;4.68;;;2.15;;
37647;SDS011;23490;53.656;10.076;2023-06-22T11:34:49;3.50;;;2.08;;
37647;SDS011;23490;53.656;10.076;2023-06-22T11:37:14;2.80;;;1.98;;
37647;SDS011;23490;53.656;10.076;2023-06-22T11:39:40;5.30;;;2.00;;
37647;SDS011;23490;53.656;10.076;2023-06-22T11:42:06;3.88;;;2.50;;
37647;SDS011;23490;53.656;10.076;2023-06-22T11:44:32;2.78;;;2.08;;
37647;SDS011;23490;53.656;10.076;2023-06-22T11:46:59;4.57;;;2.53;;
37647;SDS011;23490;53.656;10.076;2023-06-22T11:49:26;5.55;;;2.40;;
37647;SDS011;23490;53.656;10.076;2023-06-22T11:51:51;2.97;;;2.03;;
37647;SDS011;23490;53.656;10.076;2023-06-22T11:54:17;4.55;;;2.63;;
37647;SDS011;23490;53.656;10.076;2023-06-22T11:56:42;3.33;;;2.22;;
37647;SDS011;23490;53.656;10.076;2023-06-22T11:59:07;3.67;;;2.20;;
37647;SDS011;23490;53.656;10.076;2023-06-22T12:01:33;3.42;;;2.15;;
37647;SDS011;23490;53.656;10.076;2023-06-22T12:03:59;4.68;;;2.80;;
37647;SDS011;23490;53.656;10.076;2023-06-22T12:06:25;4.65;;;2.17;;
37647;SDS011;23490;53.656;10.076;2023-06-22T12:08:51;3.83;;;2.70;;
37647;SDS011;23490;53.656;10.076;2023-06-22T12:11:16;5.68;;;3.03;;
37647;SDS011;23490;53.656;10.076;2023-06-22T12:13:42;5.40;;;2.90;;
37647;SDS011;23490;53.656;10.076;2023-06-22T12:16:07;4.90;;;2.88;;
37647;SDS011;23490;53.656;10.076;2023-06-22T12:18:32;6.18;;;2.78;;
37647;SDS011;23490;53.656;10.076;2023-06-22T12:20:58;4.38;;;2.47;;
37647;SDS011;23490;53.656;10.076;2023-06-22T12:23:23;4.32;;;2.70;;
37647;SDS011;23490;53.656;10.076;2023-06-22T12:25:48;3.83;;;2.40;;
37647;SDS011;23490;53.656;10.076;2023-06-22T12:28:15;4.25;;;2.65;;
37647;SDS011;23490;53.656;10.076;2023-06-22T12:30:40;3.60;;;2.40;;
37647;SDS011;23490;53.656;10.076;2023-06-22T12:33:05;4.05;;;2.58;;
37647;SDS011;23490;53.656;10.076;2023-06-22T12:35:31;3.72;;;2.50;;
37647;SDS011;23490;53.656;10.076;2023-06-22T12:37:56;4.30;;;2.70;;
37647;SDS011;23490;53.656;10.076;2023-06-22T12:40:21;3.65;;;2.38;;
37647;SDS011;23490;53.656;10.076;2023-06-22T12:42:47;3.50;;;2.20;;
37647;SDS011;23490;53.656;10.076;2023-06-22T12:45:12;6.07;;;3.25;;
37647;SDS011;23490;53.656;10.076;2023-06-22T12:47:38;4.78;;;2.75;;
37647;SDS011;23490;53.656;10.076;2023-06-22T12:50:04;6.43;;;2.72;;
37647;SDS011;23490;53.656;10.076;2023-06-22T12:52:30;3.63;;;2.58;;
37647;SDS011;23490;53.656;10.076;2023-06-22T12:54:59;4.50;;;2.55;;
37647;SDS011;23490;53.656;10.076;2023-06-22T12:57:24;4.93;;;3.03;;
37647;SDS011;23490;53.656;10.076;2023-06-22T12:59:51;4.35;;;2.95;;
37647;SDS011;23490;53.656;10.076;2023-06-22T13:02:16;5.07;;;3.20;;
37647;SDS011;23490;53.656;10.076;2023-06-22T13:04:43;4.03;;;3.05;;
37647;SDS011;23490;53.656;10.076;2023-06-22T13:07:08;5.65;;;3.20;;
37647;SDS011;23490;53.656;10.076;2023-06-22T13:09:35;3.45;;;2.60;;
37647;SDS011;23490;53.656;10.076;2023-06-22T13:12:03;4.82;;;3.08;;
37647;SDS011;23490;53.656;10.076;2023-06-22T13:14:28;3.60;;;2.55;;
37647;SDS011;23490;53.656;10.076;2023-06-22T13:16:54;5.43;;;2.75;;
37647;SDS011;23490;53.656;10.076;2023-06-22T13:19:21;5.03;;;2.65;;
37647;SDS011;23490;53.656;10.076;2023-06-22T13:21:47;3.75;;;2.72;;
37647;SDS011;23490;53.656;10.076;2023-06-22T13:24:13;3.30;;;2.53;;
37647;SDS011;23490;53.656;10.076;2023-06-22T13:26:38;4.78;;;3.10;;
37647;SDS011;23490;53.656;10.076;2023-06-22T13:29:04;4.18;;;2.67;;
37647;SDS011;23490;53.656;10.076;2023-06-22T13:31:29;4.72;;;2.85;;
37647;SDS011;23490;53.656;10.076;2023-06-22T13:33:55;5.68;;;3.22;;
37647;SDS011;23490;53.656;10.076;2023-06-22T13:36:20;4.53;;;2.65;;
37647;SDS011;23490;53.656;10.076;2023-06-22T13:38:48;3.42;;;2.72;;
37647;SDS011;23490;53.656;10.076;2023-06-22T13:41:15;4.47;;;2.90;;
37647;SDS011;23490;53.656;10.076;2023-06-22T13:43:40;4.88;;;3.03;;
37647;SDS011;23490;53.656;10.076;2023-06-22T13:46:05;7.53;;;3.30;;
37647;SDS011;23490;53.656;10.076;2023-06-22T13:48:31;4.65;;;3.00;;
37647;SDS011;23490;53.656;10.076;2023-06-22T13:50:58;4.43;;;2.85;;
37647;SDS011;23490;53.656;10.076;2023-06-22T13:53:24;4.22;;;2.50;;
37647;SDS011;23490;53.656;10.076;2023-06-22T13:55:51;5.05;;;3.50;;
37647;SDS011;23490;53.656;10.076;2023-06-22T13:58:17;5.28;;;3.45;;
37647;SDS011;23490;53.656;10.076;2023-06-22T14:00:44;4.93;;;2.75;;
37647;SDS011;23490;53.656;10.076;2023-06-22T14:03:10;5.30;;;2.95;;
37647;SDS011;23490;53.656;10.076;2023-06-22T14:05:35;4.07;;;3.05;;
37647;SDS011;23490;53.656;10.076;2023-06-22T14:08:02;5.40;;;3.20;;
37647;SDS011;23490;53.656;10.076;2023-06-22T14:10:27;4.18;;;2.83;;
37647;SDS011;23490;53.656;10.076;2023-06-22T14:12:53;5.53;;;2.90;;
37647;SDS011;23490;53.656;10.076;2023-06-22T14:15:18;4.82;;;3.00;;
37647;SDS011;23490;53.656;10.076;2023-06-22T14:17:44;3.97;;;2.70;;
37647;SDS011;23490;53.656;10.076;2023-06-22T14:20:09;4.90;;;3.13;;
37647;SDS011;23490;53.656;10.076;2023-06-22T14:22:35;3.60;;;2.38;;
37647;SDS011;23490;53.656;10.076;2023-06-22T14:25:01;5.18;;;2.80;;
37647;SDS011;23490;53.656;10.076;2023-06-22T14:27:28;5.55;;;3.17;;
37647;SDS011;23490;53.656;10.076;2023-06-22T14:29:55;4.60;;;3.03;;
37647;SDS011;23490;53.656;10.076;2023-06-22T14:32:20;5.85;;;3.15;;
37647;SDS011;23490;53.656;10.076;2023-06-22T14:34:47;6.72;;;3.13;;
37647;SDS011;23490;53.656;10.076;2023-06-22T14:37:15;4.77;;;3.27;;
37647;SDS011;23490;53.656;10.076;2023-06-22T14:39:40;4.32;;;2.97;;
37647;SDS011;23490;53.656;10.076;2023-06-22T14:42:06;6.10;;;3.30;;